sensor_id;sensor_type;location;lat;lon;timestamp;temperature;humidity
21090;DHT22;10703;51.020;6.128;2022-10-23T00:01:31;12.40;99.90
21090;DHT22;10703;51.020;6.128;2022-10-23T00:04:09;12.30;99.90
21090;DHT22;10703;51.020;6.128;2022-10-23T00:06:36;12.30;99.90
21090;DHT22;10703;51.020;6.128;2022-10-23T00:09:05;12.20;99.90
21090;DHT22;10703;51.020;6.128;2022-10-23T00:11:33;12.20;99.90
21090;DHT22;10703;51.020;6.128;2022-10-23T00:14:01;12.20;99.90
21090;DHT22;10703;51.020;6.128;2022-10-23T00:16:29;12.20;99.90
21090;DHT22;10703;51.020;6.128;2022-10-23T00:18:56;12.20;99.90
21090;DHT22;10703;51.020;6.128;2022-10-23T00:21:24;12.20;99.90
21090;DHT22;10703;51.020;6.128;2022-10-23T00:23:50;12.20;99.90
21090;DHT22;10703;51.020;6.128;2022-10-23T00:26:17;12.30;99.90
21090;DHT22;10703;51.020;6.128;2022-10-23T00:28:46;12.20;99.90
21090;DHT22;10703;51.020;6.128;2022-10-23T00:31:14;12.30;99.90
21090;DHT22;10703;51.020;6.128;2022-10-23T00:33:41;12.10;99.90
21090;DHT22;10703;51.020;6.128;2022-10-23T00:36:11;12.10;99.90
21090;DHT22;10703;51.020;6.128;2022-10-23T00:38:38;12.10;99.90
21090;DHT22;10703;51.020;6.128;2022-10-23T00:41:07;12.10;99.90
21090;DHT22;10703;51.020;6.128;2022-10-23T00:43:52;12.20;99.90
21090;DHT22;10703;51.020;6.128;2022-10-23T00:46:19;12.10;99.90
21090;DHT22;10703;51.020;6.128;2022-10-23T00:48:46;12.00;99.90
21090;DHT22;10703;51.020;6.128;2022-10-23T00:51:13;11.90;99.90
21090;DHT22;10703;51.020;6.128;2022-10-23T00:53:40;11.90;99.90
21090;DHT22;10703;51.020;6.128;2022-10-23T00:56:08;11.80;99.90
21090;DHT22;10703;51.020;6.128;2022-10-23T00:58:35;11.80;99.90
21090;DHT22;10703;51.020;6.128;2022-10-23T01:01:02;11.80;99.90
21090;DHT22;10703;51.020;6.128;2022-10-23T01:03:28;11.80;99.90
21090;DHT22;10703;51.020;6.128;2022-10-23T01:06:07;11.80;99.90
21090;DHT22;10703;51.020;6.128;2022-10-23T01:11:26;12.00;99.90
21090;DHT22;10703;51.020;6.128;2022-10-23T01:14:02;12.00;99.90
21090;DHT22;10703;51.020;6.128;2022-10-23T01:19:45;12.00;99.90
21090;DHT22;10703;51.020;6.128;2022-10-23T01:22:37;12.00;99.90
21090;DHT22;10703;51.020;6.128;2022-10-23T01:27:49;12.10;99.90
21090;DHT22;10703;51.020;6.128;2022-10-23T01:30:18;12.00;99.90
21090;DHT22;10703;51.020;6.128;2022-10-23T01:32:47;11.90;99.90
21090;DHT22;10703;51.020;6.128;2022-10-23T01:35:27;11.90;99.90
21090;DHT22;10703;51.020;6.128;2022-10-23T01:38:18;12.00;99.90
21090;DHT22;10703;51.020;6.128;2022-10-23T01:41:01;12.00;99.90
21090;DHT22;10703;51.020;6.128;2022-10-23T01:43:47;12.00;99.90
21090;DHT22;10703;51.020;6.128;2022-10-23T01:46:17;12.00;99.90
21090;DHT22;10703;51.020;6.128;2022-10-23T01:48:47;12.00;99.90
21090;DHT22;10703;51.020;6.128;2022-10-23T01:51:18;12.00;99.90
21090;DHT22;10703;51.020;6.128;2022-10-23T01:53:47;12.00;99.90
21090;DHT22;10703;51.020;6.128;2022-10-23T01:56:20;12.00;99.90
21090;DHT22;10703;51.020;6.128;2022-10-23T01:58:50;12.00;99.90
21090;DHT22;10703;51.020;6.128;2022-10-23T02:01:20;12.00;99.90
21090;DHT22;10703;51.020;6.128;2022-10-23T02:03:49;12.00;99.90
21090;DHT22;10703;51.020;6.128;2022-10-23T02:06:16;12.00;99.90
21090;DHT22;10703;51.020;6.128;2022-10-23T02:08:43;12.00;99.90
21090;DHT22;10703;51.020;6.128;2022-10-23T02:11:13;11.90;99.90
21090;DHT22;10703;51.020;6.128;2022-10-23T02:14:00;12.00;99.90
21090;DHT22;10703;51.020;6.128;2022-10-23T02:19:35;11.90;99.90
21090;DHT22;10703;51.020;6.128;2022-10-23T02:24:48;12.00;99.90
21090;DHT22;10703;51.020;6.128;2022-10-23T02:27:23;11.90;99.90
21090;DHT22;10703;51.020;6.128;2022-10-23T02:29:54;11.90;99.90
21090;DHT22;10703;51.020;6.128;2022-10-23T02:32:24;11.90;99.90
21090;DHT22;10703;51.020;6.128;2022-10-23T02:34:51;11.90;99.90
21090;DHT22;10703;51.020;6.128;2022-10-23T02:37:18;11.90;99.90
21090;DHT22;10703;51.020;6.128;2022-10-23T02:39:45;12.00;99.90
21090;DHT22;10703;51.020;6.128;2022-10-23T02:42:32;12.00;99.90
21090;DHT22;10703;51.020;6.128;2022-10-23T02:45:10;12.00;99.90
21090;DHT22;10703;51.020;6.128;2022-10-23T02:50:31;12.00;99.90
21090;DHT22;10703;51.020;6.128;2022-10-23T02:53:32;12.10;99.90
21090;DHT22;10703;51.020;6.128;2022-10-23T02:59:00;12.00;99.90
21090;DHT22;10703;51.020;6.128;2022-10-23T03:01:42;12.00;99.90
21090;DHT22;10703;51.020;6.128;2022-10-23T03:04:14;12.00;99.90
21090;DHT22;10703;51.020;6.128;2022-10-23T03:06:41;12.00;99.90
21090;DHT22;10703;51.020;6.128;2022-10-23T03:09:09;12.10;99.90
21090;DHT22;10703;51.020;6.128;2022-10-23T03:11:35;12.10;99.90
21090;DHT22;10703;51.020;6.128;2022-10-23T03:14:02;12.10;99.90
21090;DHT22;10703;51.020;6.128;2022-10-23T03:16:28;12.00;99.90
21090;DHT22;10703;51.020;6.128;2022-10-23T03:18:55;12.10;99.90
21090;DHT22;10703;51.020;6.128;2022-10-23T03:21:22;12.10;99.90
21090;DHT22;10703;51.020;6.128;2022-10-23T03:23:48;12.10;99.90
21090;DHT22;10703;51.020;6.128;2022-10-23T03:26:15;12.10;99.90
21090;DHT22;10703;51.020;6.128;2022-10-23T03:28:41;12.20;99.90
21090;DHT22;10703;51.020;6.128;2022-10-23T03:31:08;12.20;99.90
21090;DHT22;10703;51.020;6.128;2022-10-23T03:33:35;12.30;99.90
21090;DHT22;10703;51.020;6.128;2022-10-23T03:36:01;12.40;99.90
21090;DHT22;10703;51.020;6.128;2022-10-23T03:38:28;12.40;99.90
21090;DHT22;10703;51.020;6.128;2022-10-23T03:40:55;12.40;99.90
21090;DHT22;10703;51.020;6.128;2022-10-23T03:43:21;12.40;99.90
21090;DHT22;10703;51.020;6.128;2022-10-23T03:45:48;12.50;99.90
21090;DHT22;10703;51.020;6.128;2022-10-23T03:48:16;12.60;99.90
21090;DHT22;10703;51.020;6.128;2022-10-23T03:50:42;12.70;99.90
21090;DHT22;10703;51.020;6.128;2022-10-23T03:53:09;12.60;99.90
21090;DHT22;10703;51.020;6.128;2022-10-23T03:55:35;12.70;99.90
21090;DHT22;10703;51.020;6.128;2022-10-23T03:58:02;12.70;99.90
21090;DHT22;10703;51.020;6.128;2022-10-23T04:00:28;12.70;99.90
21090;DHT22;10703;51.020;6.128;2022-10-23T04:02:55;12.70;99.90
21090;DHT22;10703;51.020;6.128;2022-10-23T04:05:22;12.70;99.90
21090;DHT22;10703;51.020;6.128;2022-10-23T04:07:48;12.70;99.90
21090;DHT22;10703;51.020;6.128;2022-10-23T04:10:15;12.70;99.90
21090;DHT22;10703;51.020;6.128;2022-10-23T04:12:42;12.70;99.90
21090;DHT22;10703;51.020;6.128;2022-10-23T04:15:09;12.70;99.90
21090;DHT22;10703;51.020;6.128;2022-10-23T04:17:36;12.70;99.90
21090;DHT22;10703;51.020;6.128;2022-10-23T04:20:02;12.80;99.90
21090;DHT22;10703;51.020;6.128;2022-10-23T04:22:29;12.80;99.90
21090;DHT22;10703;51.020;6.128;2022-10-23T04:24:56;12.80;99.90
21090;DHT22;10703;51.020;6.128;2022-10-23T04:27:22;12.80;99.90
21090;DHT22;10703;51.020;6.128;2022-10-23T04:29:49;12.80;99.90
21090;DHT22;10703;51.020;6.128;2022-10-23T04:32:17;12.80;99.90
21090;DHT22;10703;51.020;6.128;2022-10-23T04:34:44;12.90;99.90
21090;DHT22;10703;51.020;6.128;2022-10-23T04:37:10;12.90;99.90
21090;DHT22;10703;51.020;6.128;2022-10-23T04:39:37;12.90;99.90
21090;DHT22;10703;51.020;6.128;2022-10-23T04:42:04;12.90;99.90
21090;DHT22;10703;51.020;6.128;2022-10-23T04:44:30;13.00;99.90
21090;DHT22;10703;51.020;6.128;2022-10-23T04:46:57;12.80;99.90
21090;DHT22;10703;51.020;6.128;2022-10-23T04:49:23;12.90;99.90
21090;DHT22;10703;51.020;6.128;2022-10-23T04:51:50;12.90;99.90
21090;DHT22;10703;51.020;6.128;2022-10-23T04:54:16;12.90;99.90
21090;DHT22;10703;51.020;6.128;2022-10-23T04:56:43;12.90;99.90
21090;DHT22;10703;51.020;6.128;2022-10-23T04:59:10;12.80;99.90
21090;DHT22;10703;51.020;6.128;2022-10-23T05:01:36;12.80;99.90
21090;DHT22;10703;51.020;6.128;2022-10-23T05:04:03;12.80;99.90
21090;DHT22;10703;51.020;6.128;2022-10-23T05:06:30;12.80;99.90
21090;DHT22;10703;51.020;6.128;2022-10-23T05:08:56;12.80;99.90
21090;DHT22;10703;51.020;6.128;2022-10-23T05:11:23;12.80;99.90
21090;DHT22;10703;51.020;6.128;2022-10-23T05:13:50;12.80;99.90
21090;DHT22;10703;51.020;6.128;2022-10-23T05:19:17;12.70;99.90
21090;DHT22;10703;51.020;6.128;2022-10-23T05:21:50;12.70;99.90
21090;DHT22;10703;51.020;6.128;2022-10-23T05:24:22;12.70;99.90
21090;DHT22;10703;51.020;6.128;2022-10-23T05:26:50;12.70;99.90
21090;DHT22;10703;51.020;6.128;2022-10-23T05:29:18;12.70;99.90
21090;DHT22;10703;51.020;6.128;2022-10-23T05:31:46;12.70;99.90
21090;DHT22;10703;51.020;6.128;2022-10-23T05:34:16;12.70;99.90
21090;DHT22;10703;51.020;6.128;2022-10-23T05:36:44;12.60;99.90
21090;DHT22;10703;51.020;6.128;2022-10-23T05:39:11;12.60;99.90
21090;DHT22;10703;51.020;6.128;2022-10-23T05:41:38;12.50;99.90
21090;DHT22;10703;51.020;6.128;2022-10-23T05:44:04;12.50;99.90
21090;DHT22;10703;51.020;6.128;2022-10-23T05:46:31;12.50;99.90
21090;DHT22;10703;51.020;6.128;2022-10-23T05:48:57;12.50;99.90
21090;DHT22;10703;51.020;6.128;2022-10-23T05:51:29;12.50;99.90
21090;DHT22;10703;51.020;6.128;2022-10-23T05:53:55;12.50;99.90
21090;DHT22;10703;51.020;6.128;2022-10-23T05:56:22;12.50;99.90
21090;DHT22;10703;51.020;6.128;2022-10-23T05:58:49;12.50;99.90
21090;DHT22;10703;51.020;6.128;2022-10-23T06:01:15;12.50;99.90
21090;DHT22;10703;51.020;6.128;2022-10-23T06:03:43;12.50;99.90
21090;DHT22;10703;51.020;6.128;2022-10-23T06:06:10;12.60;99.90
21090;DHT22;10703;51.020;6.128;2022-10-23T06:08:37;12.70;99.90
21090;DHT22;10703;51.020;6.128;2022-10-23T06:11:08;12.70;99.90
21090;DHT22;10703;51.020;6.128;2022-10-23T06:13:35;12.60;99.90
21090;DHT22;10703;51.020;6.128;2022-10-23T06:16:17;12.60;99.90
21090;DHT22;10703;51.020;6.128;2022-10-23T06:18:45;12.60;99.90
21090;DHT22;10703;51.020;6.128;2022-10-23T06:21:13;12.50;99.90
21090;DHT22;10703;51.020;6.128;2022-10-23T06:23:41;12.50;99.90
21090;DHT22;10703;51.020;6.128;2022-10-23T06:26:10;12.60;99.90
21090;DHT22;10703;51.020;6.128;2022-10-23T06:28:37;12.60;99.90
21090;DHT22;10703;51.020;6.128;2022-10-23T06:31:05;12.60;99.90
21090;DHT22;10703;51.020;6.128;2022-10-23T06:33:32;12.60;99.90
21090;DHT22;10703;51.020;6.128;2022-10-23T06:35:58;12.60;99.90
21090;DHT22;10703;51.020;6.128;2022-10-23T06:38:25;12.60;99.90
21090;DHT22;10703;51.020;6.128;2022-10-23T06:40:53;12.60;99.90
21090;DHT22;10703;51.020;6.128;2022-10-23T06:43:19;12.70;99.90
21090;DHT22;10703;51.020;6.128;2022-10-23T06:45:46;12.70;99.90
21090;DHT22;10703;51.020;6.128;2022-10-23T06:48:13;12.80;99.90
21090;DHT22;10703;51.020;6.128;2022-10-23T06:50:40;12.80;99.90
21090;DHT22;10703;51.020;6.128;2022-10-23T06:53:07;12.70;99.90
21090;DHT22;10703;51.020;6.128;2022-10-23T06:55:35;12.70;99.90
21090;DHT22;10703;51.020;6.128;2022-10-23T06:58:07;12.70;99.90
21090;DHT22;10703;51.020;6.128;2022-10-23T07:00:38;12.80;99.90
21090;DHT22;10703;51.020;6.128;2022-10-23T07:03:06;12.90;99.90
21090;DHT22;10703;51.020;6.128;2022-10-23T07:05:34;12.80;99.90
21090;DHT22;10703;51.020;6.128;2022-10-23T07:08:03;12.90;99.90
21090;DHT22;10703;51.020;6.128;2022-10-23T07:10:30;13.10;99.90
21090;DHT22;10703;51.020;6.128;2022-10-23T07:12:57;13.10;99.90
21090;DHT22;10703;51.020;6.128;2022-10-23T07:15:26;13.20;99.90
21090;DHT22;10703;51.020;6.128;2022-10-23T07:17:53;13.40;99.90
21090;DHT22;10703;51.020;6.128;2022-10-23T07:20:20;13.30;99.90
21090;DHT22;10703;51.020;6.128;2022-10-23T07:22:52;13.50;99.90
21090;DHT22;10703;51.020;6.128;2022-10-23T07:25:20;13.70;99.90
21090;DHT22;10703;51.020;6.128;2022-10-23T07:27:47;13.80;99.90
21090;DHT22;10703;51.020;6.128;2022-10-23T07:30:15;14.00;99.90
21090;DHT22;10703;51.020;6.128;2022-10-23T07:32:42;14.20;99.90
21090;DHT22;10703;51.020;6.128;2022-10-23T07:35:11;14.40;99.90
21090;DHT22;10703;51.020;6.128;2022-10-23T07:37:38;14.70;99.90
21090;DHT22;10703;51.020;6.128;2022-10-23T07:40:06;15.10;99.90
21090;DHT22;10703;51.020;6.128;2022-10-23T07:42:33;15.50;99.90
21090;DHT22;10703;51.020;6.128;2022-10-23T07:44:59;16.10;99.90
21090;DHT22;10703;51.020;6.128;2022-10-23T07:47:26;16.70;99.90
21090;DHT22;10703;51.020;6.128;2022-10-23T07:49:53;17.40;99.90
21090;DHT22;10703;51.020;6.128;2022-10-23T07:52:19;17.70;99.90
21090;DHT22;10703;51.020;6.128;2022-10-23T07:54:50;17.70;99.90
21090;DHT22;10703;51.020;6.128;2022-10-23T07:57:17;17.70;99.90
21090;DHT22;10703;51.020;6.128;2022-10-23T07:59:44;17.80;99.90
21090;DHT22;10703;51.020;6.128;2022-10-23T08:02:12;18.00;99.90
21090;DHT22;10703;51.020;6.128;2022-10-23T08:04:39;18.40;99.90
21090;DHT22;10703;51.020;6.128;2022-10-23T08:07:06;18.40;99.90
21090;DHT22;10703;51.020;6.128;2022-10-23T08:09:32;18.10;99.90
21090;DHT22;10703;51.020;6.128;2022-10-23T08:12:01;18.00;99.90
21090;DHT22;10703;51.020;6.128;2022-10-23T08:14:27;18.00;99.90
21090;DHT22;10703;51.020;6.128;2022-10-23T08:16:54;18.10;99.90
21090;DHT22;10703;51.020;6.128;2022-10-23T08:19:20;17.80;99.90
21090;DHT22;10703;51.020;6.128;2022-10-23T08:21:47;17.80;99.90
21090;DHT22;10703;51.020;6.128;2022-10-23T08:24:14;17.90;99.90
21090;DHT22;10703;51.020;6.128;2022-10-23T08:26:40;18.10;99.90
21090;DHT22;10703;51.020;6.128;2022-10-23T08:29:07;18.50;99.90
21090;DHT22;10703;51.020;6.128;2022-10-23T08:31:34;19.00;99.90
21090;DHT22;10703;51.020;6.128;2022-10-23T08:34:00;19.10;99.90
21090;DHT22;10703;51.020;6.128;2022-10-23T08:36:27;19.10;99.90
21090;DHT22;10703;51.020;6.128;2022-10-23T08:38:56;19.00;99.90
21090;DHT22;10703;51.020;6.128;2022-10-23T08:46:47;18.60;99.90
21090;DHT22;10703;51.020;6.128;2022-10-23T08:51:46;18.30;99.90
21090;DHT22;10703;51.020;6.128;2022-10-23T08:56:51;18.60;99.90
21090;DHT22;10703;51.020;6.128;2022-10-23T08:59:35;18.70;99.90
21090;DHT22;10703;51.020;6.128;2022-10-23T09:04:46;18.70;99.90
21090;DHT22;10703;51.020;6.128;2022-10-23T09:12:45;18.60;99.90
21090;DHT22;10703;51.020;6.128;2022-10-23T09:17:52;18.80;99.90
21090;DHT22;10703;51.020;6.128;2022-10-23T09:20:24;18.90;99.90
21090;DHT22;10703;51.020;6.128;2022-10-23T09:23:00;18.80;99.90
21090;DHT22;10703;51.020;6.128;2022-10-23T09:25:34;18.80;99.90
21090;DHT22;10703;51.020;6.128;2022-10-23T09:28:02;18.80;99.90
21090;DHT22;10703;51.020;6.128;2022-10-23T09:30:34;19.00;99.90
21090;DHT22;10703;51.020;6.128;2022-10-23T09:41:22;19.70;99.90
21090;DHT22;10703;51.020;6.128;2022-10-23T09:44:22;19.70;99.90
21090;DHT22;10703;51.020;6.128;2022-10-23T09:47:00;19.60;99.90
21090;DHT22;10703;51.020;6.128;2022-10-23T09:49:33;19.40;99.90
21090;DHT22;10703;51.020;6.128;2022-10-23T09:54:38;19.40;99.90
21090;DHT22;10703;51.020;6.128;2022-10-23T09:57:34;19.40;99.90
21090;DHT22;10703;51.020;6.128;2022-10-23T10:00:19;19.40;99.90
21090;DHT22;10703;51.020;6.128;2022-10-23T10:02:58;19.40;99.90
21090;DHT22;10703;51.020;6.128;2022-10-23T10:05:28;19.30;99.90
21090;DHT22;10703;51.020;6.128;2022-10-23T10:08:04;19.20;99.90
21090;DHT22;10703;51.020;6.128;2022-10-23T10:10:36;19.20;99.90
21090;DHT22;10703;51.020;6.128;2022-10-23T10:18:53;18.90;99.90
21090;DHT22;10703;51.020;6.128;2022-10-23T10:24:00;18.80;99.90
21090;DHT22;10703;51.020;6.128;2022-10-23T10:26:43;18.70;99.90
21090;DHT22;10703;51.020;6.128;2022-10-23T10:34:54;19.00;99.90
21090;DHT22;10703;51.020;6.128;2022-10-23T10:43:23;18.80;99.90
21090;DHT22;10703;51.020;6.128;2022-10-23T10:46:14;18.70;99.90
21090;DHT22;10703;51.020;6.128;2022-10-23T10:48:55;18.80;99.90
21090;DHT22;10703;51.020;6.128;2022-10-23T10:51:31;18.70;99.90
21090;DHT22;10703;51.020;6.128;2022-10-23T10:56:57;18.80;99.90
21090;DHT22;10703;51.020;6.128;2022-10-23T10:59:37;18.60;99.90
21090;DHT22;10703;51.020;6.128;2022-10-23T11:02:20;18.60;99.90
21090;DHT22;10703;51.020;6.128;2022-10-23T11:04:55;18.70;99.90
21090;DHT22;10703;51.020;6.128;2022-10-23T11:07:27;18.80;99.90
21090;DHT22;10703;51.020;6.128;2022-10-23T11:09:58;18.90;99.90
21090;DHT22;10703;51.020;6.128;2022-10-23T11:12:26;19.10;99.90
21090;DHT22;10703;51.020;6.128;2022-10-23T11:14:53;19.90;99.90
21090;DHT22;10703;51.020;6.128;2022-10-23T11:17:31;20.30;99.90
21090;DHT22;10703;51.020;6.128;2022-10-23T11:23:54;21.30;99.90
21090;DHT22;10703;51.020;6.128;2022-10-23T11:37:33;22.20;99.90
21090;DHT22;10703;51.020;6.128;2022-10-23T11:45:33;23.00;99.90
21090;DHT22;10703;51.020;6.128;2022-10-23T11:48:17;23.40;99.90
21090;DHT22;10703;51.020;6.128;2022-10-23T11:58:48;24.00;99.90
21090;DHT22;10703;51.020;6.128;2022-10-23T12:06:26;23.50;99.90
21090;DHT22;10703;51.020;6.128;2022-10-23T12:09:00;23.20;99.90
21090;DHT22;10703;51.020;6.128;2022-10-23T12:11:45;23.20;99.90
21090;DHT22;10703;51.020;6.128;2022-10-23T12:14:49;22.90;99.90
21090;DHT22;10703;51.020;6.128;2022-10-23T12:25:58;22.20;99.90
21090;DHT22;10703;51.020;6.128;2022-10-23T12:34:42;22.20;99.90
21090;DHT22;10703;51.020;6.128;2022-10-23T12:37:37;22.10;99.90
21090;DHT22;10703;51.020;6.128;2022-10-23T12:40:11;22.00;99.90
21090;DHT22;10703;51.020;6.128;2022-10-23T12:42:38;21.70;99.90
21090;DHT22;10703;51.020;6.128;2022-10-23T12:45:26;21.90;99.90
21090;DHT22;10703;51.020;6.128;2022-10-23T12:47:54;22.20;99.90
21090;DHT22;10703;51.020;6.128;2022-10-23T12:50:26;22.00;99.90
21090;DHT22;10703;51.020;6.128;2022-10-23T12:52:57;22.10;99.90
21090;DHT22;10703;51.020;6.128;2022-10-23T12:55:25;21.80;99.90
21090;DHT22;10703;51.020;6.128;2022-10-23T12:57:54;22.00;99.90
21090;DHT22;10703;51.020;6.128;2022-10-23T13:00:23;21.90;99.90
21090;DHT22;10703;51.020;6.128;2022-10-23T13:03:01;22.00;99.90
21090;DHT22;10703;51.020;6.128;2022-10-23T13:05:28;22.00;99.90
21090;DHT22;10703;51.020;6.128;2022-10-23T13:07:57;22.00;99.90
21090;DHT22;10703;51.020;6.128;2022-10-23T13:10:25;22.10;99.90
21090;DHT22;10703;51.020;6.128;2022-10-23T13:13:00;22.00;99.90
21090;DHT22;10703;51.020;6.128;2022-10-23T13:15:37;21.90;99.90
21090;DHT22;10703;51.020;6.128;2022-10-23T13:18:06;21.90;99.90
21090;DHT22;10703;51.020;6.128;2022-10-23T13:20:35;22.00;99.90
21090;DHT22;10703;51.020;6.128;2022-10-23T13:25:37;22.20;99.90
21090;DHT22;10703;51.020;6.128;2022-10-23T13:30:42;22.40;99.90
21090;DHT22;10703;51.020;6.128;2022-10-23T13:33:25;22.60;99.90
21090;DHT22;10703;51.020;6.128;2022-10-23T13:36:19;22.40;99.90
21090;DHT22;10703;51.020;6.128;2022-10-23T13:41:37;22.40;99.90
21090;DHT22;10703;51.020;6.128;2022-10-23T13:44:04;22.40;99.90
21090;DHT22;10703;51.020;6.128;2022-10-23T13:46:31;22.40;99.90
21090;DHT22;10703;51.020;6.128;2022-10-23T13:48:58;22.30;99.90
21090;DHT22;10703;51.020;6.128;2022-10-23T13:51:30;22.30;99.90
21090;DHT22;10703;51.020;6.128;2022-10-23T13:53:57;22.10;99.90
21090;DHT22;10703;51.020;6.128;2022-10-23T13:56:25;22.10;99.90
21090;DHT22;10703;51.020;6.128;2022-10-23T13:58:53;22.10;99.90
21090;DHT22;10703;51.020;6.128;2022-10-23T14:01:25;22.00;99.90
21090;DHT22;10703;51.020;6.128;2022-10-23T14:03:53;21.70;99.90
21090;DHT22;10703;51.020;6.128;2022-10-23T14:06:20;21.80;99.90
21090;DHT22;10703;51.020;6.128;2022-10-23T14:08:47;21.80;99.90
21090;DHT22;10703;51.020;6.128;2022-10-23T14:11:15;21.90;99.90
21090;DHT22;10703;51.020;6.128;2022-10-23T14:13:42;21.80;99.90
21090;DHT22;10703;51.020;6.128;2022-10-23T14:16:11;22.00;99.90
21090;DHT22;10703;51.020;6.128;2022-10-23T14:18:38;22.10;99.90
21090;DHT22;10703;51.020;6.128;2022-10-23T14:21:06;22.00;99.90
21090;DHT22;10703;51.020;6.128;2022-10-23T14:23:33;21.90;99.90
21090;DHT22;10703;51.020;6.128;2022-10-23T14:26:04;21.80;99.90
21090;DHT22;10703;51.020;6.128;2022-10-23T14:28:32;21.60;99.90
21090;DHT22;10703;51.020;6.128;2022-10-23T14:31:10;21.40;99.90
21090;DHT22;10703;51.020;6.128;2022-10-23T14:33:38;21.40;99.90
21090;DHT22;10703;51.020;6.128;2022-10-23T14:36:04;21.30;99.90
21090;DHT22;10703;51.020;6.128;2022-10-23T14:38:31;21.10;99.90
21090;DHT22;10703;51.020;6.128;2022-10-23T14:40:58;20.80;99.90
21090;DHT22;10703;51.020;6.128;2022-10-23T14:43:25;20.80;99.90
21090;DHT22;10703;51.020;6.128;2022-10-23T14:45:51;20.60;99.90
21090;DHT22;10703;51.020;6.128;2022-10-23T14:48:18;20.70;99.90
21090;DHT22;10703;51.020;6.128;2022-10-23T14:50:47;20.50;99.90
21090;DHT22;10703;51.020;6.128;2022-10-23T14:53:14;20.50;99.90
21090;DHT22;10703;51.020;6.128;2022-10-23T14:55:41;20.40;99.90
21090;DHT22;10703;51.020;6.128;2022-10-23T14:58:08;20.30;99.90
21090;DHT22;10703;51.020;6.128;2022-10-23T15:00:34;20.10;99.90
21090;DHT22;10703;51.020;6.128;2022-10-23T15:03:01;20.00;99.90
21090;DHT22;10703;51.020;6.128;2022-10-23T15:05:27;19.90;99.90
21090;DHT22;10703;51.020;6.128;2022-10-23T15:07:54;19.90;99.90
21090;DHT22;10703;51.020;6.128;2022-10-23T15:10:21;19.90;99.90
21090;DHT22;10703;51.020;6.128;2022-10-23T15:12:48;19.70;99.90
21090;DHT22;10703;51.020;6.128;2022-10-23T15:15:15;19.50;99.90
21090;DHT22;10703;51.020;6.128;2022-10-23T15:17:42;19.30;99.90
21090;DHT22;10703;51.020;6.128;2022-10-23T15:20:09;19.10;99.90
21090;DHT22;10703;51.020;6.128;2022-10-23T15:22:35;18.80;99.90
21090;DHT22;10703;51.020;6.128;2022-10-23T15:25:02;18.30;99.90
21090;DHT22;10703;51.020;6.128;2022-10-23T15:27:29;18.10;99.90
21090;DHT22;10703;51.020;6.128;2022-10-23T15:29:55;18.30;99.90
21090;DHT22;10703;51.020;6.128;2022-10-23T15:32:22;18.30;99.90
21090;DHT22;10703;51.020;6.128;2022-10-23T15:34:49;18.30;99.90
21090;DHT22;10703;51.020;6.128;2022-10-23T15:37:17;18.10;99.90
21090;DHT22;10703;51.020;6.128;2022-10-23T15:39:43;18.00;99.90
21090;DHT22;10703;51.020;6.128;2022-10-23T15:42:10;17.90;99.90
21090;DHT22;10703;51.020;6.128;2022-10-23T15:44:38;17.80;99.90
21090;DHT22;10703;51.020;6.128;2022-10-23T15:47:06;17.80;99.90
21090;DHT22;10703;51.020;6.128;2022-10-23T15:49:32;17.70;99.90
21090;DHT22;10703;51.020;6.128;2022-10-23T15:51:59;17.80;99.90
21090;DHT22;10703;51.020;6.128;2022-10-23T15:54:27;17.80;99.90
21090;DHT22;10703;51.020;6.128;2022-10-23T15:56:58;17.90;99.90
21090;DHT22;10703;51.020;6.128;2022-10-23T15:59:26;17.90;99.90
21090;DHT22;10703;51.020;6.128;2022-10-23T16:01:52;18.00;99.90
21090;DHT22;10703;51.020;6.128;2022-10-23T16:04:20;18.00;99.90
21090;DHT22;10703;51.020;6.128;2022-10-23T16:06:47;18.10;99.90
21090;DHT22;10703;51.020;6.128;2022-10-23T16:09:14;18.10;99.90
21090;DHT22;10703;51.020;6.128;2022-10-23T16:11:42;18.10;99.90
21090;DHT22;10703;51.020;6.128;2022-10-23T16:14:12;18.00;99.90
21090;DHT22;10703;51.020;6.128;2022-10-23T16:16:40;17.90;99.90
21090;DHT22;10703;51.020;6.128;2022-10-23T16:19:07;17.80;99.90
21090;DHT22;10703;51.020;6.128;2022-10-23T16:21:35;17.80;99.90
21090;DHT22;10703;51.020;6.128;2022-10-23T16:24:04;17.70;99.90
21090;DHT22;10703;51.020;6.128;2022-10-23T16:26:31;17.70;99.90
21090;DHT22;10703;51.020;6.128;2022-10-23T16:29:00;17.70;99.90
21090;DHT22;10703;51.020;6.128;2022-10-23T16:31:28;17.80;99.90
21090;DHT22;10703;51.020;6.128;2022-10-23T16:33:59;17.70;99.90
21090;DHT22;10703;51.020;6.128;2022-10-23T16:36:27;17.80;99.90
21090;DHT22;10703;51.020;6.128;2022-10-23T16:38:54;17.90;99.90
21090;DHT22;10703;51.020;6.128;2022-10-23T16:41:20;17.90;99.90
21090;DHT22;10703;51.020;6.128;2022-10-23T16:43:47;18.00;99.90
21090;DHT22;10703;51.020;6.128;2022-10-23T16:46:16;18.00;99.90
21090;DHT22;10703;51.020;6.128;2022-10-23T16:48:43;18.10;99.90
21090;DHT22;10703;51.020;6.128;2022-10-23T16:51:13;18.10;99.90
21090;DHT22;10703;51.020;6.128;2022-10-23T16:53:41;18.10;99.90
21090;DHT22;10703;51.020;6.128;2022-10-23T16:56:09;18.10;99.90
21090;DHT22;10703;51.020;6.128;2022-10-23T16:58:37;18.00;99.90
21090;DHT22;10703;51.020;6.128;2022-10-23T17:01:27;18.10;99.90
21090;DHT22;10703;51.020;6.128;2022-10-23T17:03:55;18.10;99.90
21090;DHT22;10703;51.020;6.128;2022-10-23T17:06:28;18.10;99.90
21090;DHT22;10703;51.020;6.128;2022-10-23T17:08:56;18.10;99.90
21090;DHT22;10703;51.020;6.128;2022-10-23T17:11:25;18.00;99.90
21090;DHT22;10703;51.020;6.128;2022-10-23T17:13:57;18.20;99.90
21090;DHT22;10703;51.020;6.128;2022-10-23T17:18:51;18.20;99.90
21090;DHT22;10703;51.020;6.128;2022-10-23T17:21:20;18.10;99.90
21090;DHT22;10703;51.020;6.128;2022-10-23T17:23:47;18.00;99.90
21090;DHT22;10703;51.020;6.128;2022-10-23T17:26:17;18.00;99.90
21090;DHT22;10703;51.020;6.128;2022-10-23T17:28:44;18.00;99.90
21090;DHT22;10703;51.020;6.128;2022-10-23T17:31:22;17.90;99.90
21090;DHT22;10703;51.020;6.128;2022-10-23T17:33:52;17.90;99.90
21090;DHT22;10703;51.020;6.128;2022-10-23T17:36:20;17.80;99.90
21090;DHT22;10703;51.020;6.128;2022-10-23T17:38:47;17.70;99.90
21090;DHT22;10703;51.020;6.128;2022-10-23T17:41:16;17.70;99.90
21090;DHT22;10703;51.020;6.128;2022-10-23T17:43:43;17.80;99.90
21090;DHT22;10703;51.020;6.128;2022-10-23T17:46:11;17.80;99.90
21090;DHT22;10703;51.020;6.128;2022-10-23T17:48:39;17.90;99.90
21090;DHT22;10703;51.020;6.128;2022-10-23T17:51:13;18.10;99.90
21090;DHT22;10703;51.020;6.128;2022-10-23T17:53:42;18.00;99.90
21090;DHT22;10703;51.020;6.128;2022-10-23T17:56:15;18.00;99.90
21090;DHT22;10703;51.020;6.128;2022-10-23T17:58:52;17.90;99.90
21090;DHT22;10703;51.020;6.128;2022-10-23T18:01:22;17.90;99.90
21090;DHT22;10703;51.020;6.128;2022-10-23T18:03:51;18.00;99.90